createdAt,value
2023-01-07T00:04:57.361Z,101230.59
2023-01-07T00:10:02.831Z,101236.45
2023-01-07T00:15:09.406Z,101238.34
2023-01-07T00:20:14.857Z,101234.41
2023-01-07T00:25:20.314Z,101220.60
2023-01-07T00:30:25.845Z,101220.20
2023-01-07T00:35:32.966Z,101225.22
2023-01-07T00:40:38.428Z,101242.91
2023-01-07T00:45:44.961Z,101240.26
2023-01-07T00:50:51.794Z,101232.73
2023-01-07T00:55:57.545Z,101249.46
2023-01-07T01:01:03.726Z,101253.34
2023-01-07T01:06:14.695Z,101252.43
2023-01-07T01:11:20.222Z,101254.78
2023-01-07T01:16:25.927Z,101242.00
2023-01-07T01:21:32.091Z,101231.41
2023-01-07T01:26:37.697Z,101233.74
2023-01-07T01:31:43.458Z,101229.04
2023-01-07T01:36:49.364Z,101228.17
2023-01-07T01:41:55.583Z,101227.77
2023-01-07T01:47:03.482Z,101237.42
2023-01-07T01:52:12.035Z,101246.42
2023-01-07T01:57:20.810Z,101240.64
2023-01-07T02:02:29.779Z,101248.00
2023-01-07T02:07:35.621Z,101252.35
2023-01-07T02:13:00.781Z,101257.82
2023-01-07T02:18:15.015Z,101253.13
2023-01-07T02:23:33.304Z,101252.99
2023-01-07T02:28:59.529Z,101250.80
2023-01-07T02:34:23.807Z,101248.46
2023-01-07T02:39:38.718Z,101245.06
2023-01-07T02:44:50.378Z,101242.41
2023-01-07T02:49:56.476Z,101229.85
2023-01-07T02:55:08.314Z,101225.46
2023-01-07T03:00:32.141Z,101228.53
2023-01-07T03:05:47.261Z,101234.56
2023-01-07T03:11:01.612Z,101226.07
2023-01-07T03:16:13.096Z,101232.16
2023-01-07T03:21:21.249Z,101227.81
2023-01-07T03:26:33.880Z,101222.03
2023-01-07T03:31:42.834Z,101221.52
2023-01-07T03:36:53.137Z,101219.22
2023-01-07T03:42:16.933Z,101216.78
2023-01-07T03:47:23.619Z,101205.92
2023-01-07T03:52:29.137Z,101216.61
2023-01-07T03:57:35.700Z,101216.82
2023-01-07T04:02:41.528Z,101217.18
2023-01-07T04:07:48.758Z,101217.38
2023-01-07T04:12:55.408Z,101213.34
2023-01-07T04:18:01.038Z,101208.53
2023-01-07T04:23:07.061Z,101216.27
2023-01-07T04:28:13.397Z,101212.80
2023-01-07T04:33:19.095Z,101203.89
2023-01-07T04:38:25.210Z,101206.14
2023-01-07T04:43:31.927Z,101198.63
2023-01-07T04:48:37.718Z,101189.72
2023-01-07T04:53:43.343Z,101183.33
2023-01-07T04:58:50.240Z,101188.39
2023-01-07T05:03:56.101Z,101176.98
2023-01-07T05:09:02.954Z,101178.48
2023-01-07T05:14:11.846Z,101179.80
2023-01-07T05:19:18.009Z,101182.61
2023-01-07T05:24:25.228Z,101185.48
2023-01-07T05:29:30.894Z,101176.48
2023-01-07T05:34:36.724Z,101172.49
2023-01-07T05:39:42.537Z,101176.79
2023-01-07T05:44:49.632Z,101169.16
2023-01-07T05:49:55.176Z,101165.94
2023-01-07T05:55:00.620Z,101162.45
2023-01-07T06:00:07.246Z,101163.41
2023-01-07T06:05:14.386Z,101157.62
2023-01-07T06:10:19.863Z,101143.27
2023-01-07T06:15:25.283Z,101153.20
2023-01-07T06:20:32.358Z,101149.22
2023-01-07T06:25:37.748Z,101150.63
2023-01-07T06:30:45.097Z,101140.45
2023-01-07T06:35:51.645Z,101150.55
2023-01-07T06:40:58.933Z,101160.27
2023-01-07T06:46:04.661Z,101177.81
2023-01-07T06:51:10.266Z,101191.50
2023-01-07T06:56:15.918Z,101196.05
2023-01-07T07:01:21.994Z,101187.41
2023-01-07T07:06:27.508Z,101181.98
2023-01-07T07:11:33.029Z,101174.03
2023-01-07T07:16:38.516Z,101178.38
2023-01-07T07:21:44.033Z,101172.42
2023-01-07T07:26:49.751Z,101169.42
2023-01-07T07:31:55.268Z,101170.95
2023-01-07T07:37:00.795Z,101169.68
2023-01-07T07:42:06.724Z,101175.30
2023-01-07T07:47:13.965Z,101180.67
2023-01-07T07:52:20.066Z,101173.09
2023-01-07T07:57:25.517Z,101169.16
2023-01-07T08:02:31.152Z,101168.35
2023-01-07T08:07:37.776Z,101173.91
2023-01-07T08:12:43.325Z,101169.73
2023-01-07T08:17:48.779Z,101180.81
2023-01-07T08:22:54.410Z,101173.17
2023-01-07T08:28:01.469Z,101155.80
2023-01-07T08:33:08.791Z,101151.92
2023-01-07T08:38:15.152Z,101159.80
2023-01-07T08:43:20.710Z,101175.59
2023-01-07T08:48:26.164Z,101170.58
2023-01-07T08:53:31.560Z,101158.00
2023-01-07T08:58:38.563Z,101149.78
2023-01-07T09:03:44.093Z,101148.48
2023-01-07T09:08:49.709Z,101156.17
2023-01-07T09:13:55.234Z,101163.55
2023-01-07T09:19:00.810Z,101162.17
2023-01-07T09:24:06.737Z,101165.12
2023-01-07T09:29:13.232Z,101169.83
2023-01-07T09:34:18.927Z,101170.70
2023-01-07T09:39:24.948Z,101170.41
2023-01-07T09:44:45.422Z,101178.64
2023-01-07T09:49:53.964Z,101168.11
2023-01-07T09:55:02.550Z,101167.69
2023-01-07T10:00:20.268Z,101162.56
2023-01-07T10:05:46.961Z,101161.34
2023-01-07T10:10:58.376Z,101157.90
2023-01-07T10:16:18.918Z,101153.76
2023-01-07T10:21:27.367Z,101135.88
2023-01-07T10:26:35.821Z,101127.78
2023-01-07T10:31:42.115Z,101114.36
2023-01-07T10:37:06.005Z,101107.83
2023-01-07T10:42:29.654Z,101101.48
2023-01-07T10:47:53.123Z,101097.44
2023-01-07T10:53:01.577Z,101109.60
2023-01-07T10:58:10.981Z,101095.59
2023-01-07T11:03:24.757Z,101087.33
2023-01-07T11:08:33.192Z,101092.91
2023-01-07T11:13:40.120Z,101082.89
2023-01-07T11:18:54.508Z,101070.52
2023-01-07T11:24:02.091Z,101072.27
2023-01-07T11:29:20.137Z,101070.29
2023-01-07T11:34:39.765Z,101064.71
2023-01-07T11:39:48.282Z,101054.77
2023-01-07T11:45:11.914Z,101054.06
2023-01-07T11:50:41.458Z,101049.19
2023-01-07T11:56:06.428Z,101047.41
2023-01-07T12:01:14.909Z,101032.86
2023-01-07T12:06:26.339Z,101031.05
2023-01-07T12:11:38.349Z,101026.91
2023-01-07T12:16:45.749Z,101019.75
2023-01-07T12:22:12.666Z,101009.11
2023-01-07T12:27:37.607Z,101009.89
2023-01-07T12:32:51.826Z,101001.52
2023-01-07T12:38:00.269Z,101002.26
2023-01-07T12:43:14.509Z,101003.84
2023-01-07T12:48:32.111Z,101001.14
2023-01-07T12:53:43.491Z,100996.50
2023-01-07T12:59:46.256Z,100984.25
2023-01-07T13:05:02.885Z,100986.28
2023-01-07T13:10:26.212Z,100975.94
2023-01-07T13:15:37.788Z,100973.91
2023-01-07T13:21:08.752Z,100970.37
2023-01-07T13:26:20.470Z,100969.36
2023-01-07T13:31:44.159Z,100967.16
2023-01-07T13:37:27.600Z,100969.05
2023-01-07T13:42:54.060Z,100958.02
2023-01-07T13:48:05.682Z,100949.77
2023-01-07T13:53:20.125Z,100954.78
2023-01-07T13:58:47.894Z,100957.69
2023-01-07T14:04:03.431Z,100957.59
2023-01-07T14:09:13.639Z,100949.11
2023-01-07T14:14:40.223Z,100959.52
2023-01-07T14:20:06.639Z,100955.98
2023-01-07T14:25:24.117Z,100945.47
2023-01-07T14:30:38.344Z,100950.21
2023-01-07T14:35:45.713Z,100942.85
2023-01-07T14:41:09.114Z,100936.75
2023-01-07T14:46:28.244Z,100936.36
2023-01-07T14:51:56.277Z,100934.71
2023-01-07T14:57:24.338Z,100931.81
2023-01-07T15:02:55.340Z,100927.73
2023-01-07T15:08:21.704Z,100921.73
2023-01-07T15:13:47.320Z,100911.13
2023-01-07T15:18:55.160Z,100907.91
2023-01-07T15:24:31.587Z,100903.95
2023-01-07T15:29:55.163Z,100892.17
2023-01-07T15:35:01.885Z,100898.34
2023-01-07T15:40:09.586Z,100890.91
2023-01-07T15:45:20.835Z,100883.52
2023-01-07T15:50:37.813Z,100888.78
2023-01-07T15:56:04.476Z,100888.63
2023-01-07T16:01:22.060Z,100886.09
2023-01-07T16:06:34.211Z,100883.07
2023-01-07T16:11:39.590Z,100879.84
2023-01-07T16:16:45.462Z,100880.01
2023-01-07T16:22:00.303Z,100882.59
2023-01-07T16:27:06.923Z,100887.55
2023-01-07T16:32:13.250Z,100887.47
2023-01-07T16:37:18.979Z,100887.12
2023-01-07T16:42:25.112Z,100878.06
2023-01-07T16:47:35.150Z,100879.06
2023-01-07T16:52:55.797Z,100875.38
2023-01-07T16:58:01.348Z,100876.63
2023-01-07T17:03:06.876Z,100876.83
2023-01-07T17:08:18.745Z,100876.03
2023-01-07T17:13:36.113Z,100874.30
2023-01-07T17:18:41.851Z,100902.49
2023-01-07T17:23:47.246Z,100878.41
2023-01-07T17:28:59.534Z,100876.36
2023-01-07T17:34:04.963Z,100869.45
2023-01-07T17:39:10.489Z,100861.28
2023-01-07T17:44:16.018Z,100860.34
2023-01-07T17:49:21.423Z,100858.91
2023-01-07T17:54:27.374Z,100853.58
2023-01-07T17:59:33.131Z,100859.70
2023-01-07T18:04:38.602Z,100859.30
2023-01-07T18:09:44.614Z,100856.39
2023-01-07T18:14:50.378Z,100848.86
2023-01-07T18:19:56.525Z,100853.11
2023-01-07T18:25:02.060Z,100847.52
2023-01-07T18:30:08.818Z,100847.59
2023-01-07T18:35:15.140Z,100850.27
2023-01-07T18:40:21.385Z,100847.59
2023-01-07T18:45:26.819Z,100843.22
2023-01-07T18:50:33.501Z,100840.40
2023-01-07T18:55:40.782Z,100837.03
2023-01-07T19:00:46.266Z,100827.22
2023-01-07T19:05:51.700Z,100818.34
2023-01-07T19:10:57.173Z,100814.86
2023-01-07T19:16:04.591Z,100813.14
2023-01-07T19:21:12.908Z,100815.30
2023-01-07T19:26:18.455Z,100804.56
2023-01-07T19:31:24.051Z,100804.15
2023-01-07T19:36:29.842Z,100799.20
2023-01-07T19:41:35.320Z,100785.23
2023-01-07T19:46:42.618Z,100783.58
2023-01-07T19:51:48.271Z,100780.63
2023-01-07T19:56:55.123Z,100771.53
2023-01-07T20:02:00.957Z,100769.48
2023-01-07T20:07:06.628Z,100762.37
2023-01-07T20:12:12.037Z,100760.33
2023-01-07T20:17:17.640Z,100747.38
2023-01-07T20:22:24.252Z,100739.16
2023-01-07T20:27:29.800Z,100738.06
2023-01-07T20:32:36.063Z,100726.68
2023-01-07T20:37:41.776Z,100721.11
2023-01-07T20:42:47.273Z,100708.16
2023-01-07T20:47:52.986Z,100713.73
2023-01-07T20:52:59.150Z,100710.20
2023-01-07T20:58:04.698Z,100650.16
2023-01-07T21:03:10.227Z,100704.47
2023-01-07T21:08:16.768Z,100702.22
2023-01-07T21:13:24.009Z,100695.94
2023-01-07T21:18:29.541Z,100692.95
2023-01-07T21:23:36.189Z,100694.86
2023-01-07T21:28:42.096Z,100684.89
2023-01-07T21:33:47.713Z,100680.66
2023-01-07T21:38:58.386Z,100665.11
2023-01-07T21:44:03.936Z,100665.03
2023-01-07T21:49:09.592Z,100659.93
2023-01-07T21:54:15.046Z,100648.66
2023-01-07T21:59:21.156Z,100647.09
2023-01-07T22:04:28.072Z,100652.97
2023-01-07T22:09:34.981Z,100641.45
2023-01-07T22:14:41.050Z,100628.81
2023-01-07T22:19:46.588Z,100626.15
2023-01-07T22:24:51.986Z,100632.10
2023-01-07T22:29:58.009Z,100620.03
2023-01-07T22:35:03.549Z,100606.63
2023-01-07T22:40:10.780Z,100604.22
2023-01-07T22:45:19.800Z,100603.42
2023-01-07T22:50:25.478Z,100593.47
2023-01-07T22:55:32.623Z,100592.60
2023-01-07T23:00:42.642Z,100586.80
2023-01-07T23:05:48.200Z,100575.47
2023-01-07T23:10:53.744Z,100564.70
2023-01-07T23:16:05.475Z,100548.16
2023-01-07T23:21:12.237Z,100544.78
2023-01-07T23:26:17.807Z,100530.52
2023-01-07T23:31:23.303Z,100532.88
2023-01-07T23:36:29.849Z,100524.16
2023-01-07T23:41:36.958Z,100509.55
2023-01-07T23:46:42.497Z,100498.05
2023-01-07T23:51:47.937Z,100497.44
2023-01-07T23:56:53.460Z,100491.12
